createdAt,value
2022-12-14T00:00:48.151Z,19.77
2022-12-14T00:10:50.642Z,21.77
2022-12-14T00:20:53.535Z,20.77
2022-12-14T00:30:59.317Z,20.30
2022-12-14T00:41:02.199Z,19.87
2022-12-14T00:51:05.001Z,21.93
2022-12-14T01:01:10.348Z,21.07
2022-12-14T01:11:14.954Z,22.57
2022-12-14T01:21:21.543Z,19.50
2022-12-14T01:31:31.742Z,23.23
2022-12-14T01:41:37.874Z,24.67
2022-12-14T01:51:44.485Z,24.13
2022-12-14T02:01:48.542Z,22.57
2022-12-14T02:12:11.286Z,22.00
2022-12-14T02:22:13.622Z,26.83
2022-12-14T02:32:31.279Z,27.90
2022-12-14T02:42:44.071Z,23.93
2022-12-14T02:53:34.075Z,22.00
2022-12-14T03:03:36.452Z,24.43
2022-12-14T03:13:49.150Z,26.10
2022-12-14T03:23:53.982Z,27.77
2022-12-14T03:34:00.608Z,26.73
2022-12-14T03:44:11.201Z,27.07
2022-12-14T03:54:28.704Z,25.50
2022-12-14T04:04:40.494Z,27.70
2022-12-14T04:15:09.529Z,28.33
2022-12-14T04:25:48.855Z,26.23
2022-12-14T04:35:54.822Z,27.20
2022-12-14T04:46:07.117Z,28.07
2022-12-14T04:56:36.292Z,28.10
2022-12-14T05:06:54.638Z,28.07
2022-12-14T05:16:58.090Z,27.33
2022-12-14T05:27:00.659Z,28.40
2022-12-14T05:37:03.480Z,28.13
2022-12-14T05:47:06.338Z,29.27
2022-12-14T05:57:08.894Z,28.60
2022-12-14T06:07:11.884Z,27.37
2022-12-14T06:17:14.666Z,29.90
2022-12-14T06:27:17.714Z,33.23
2022-12-14T06:37:20.676Z,27.80
2022-12-14T06:47:23.991Z,29.67
2022-12-14T06:57:27.558Z,28.67
2022-12-14T07:07:39.508Z,30.50
2022-12-14T07:17:41.995Z,31.00
2022-12-14T07:27:45.183Z,32.33
2022-12-14T07:37:50.321Z,32.67
2022-12-14T07:47:53.338Z,32.57
2022-12-14T07:57:56.362Z,32.63
2022-12-14T08:07:59.251Z,31.87
2022-12-14T08:18:02.074Z,30.60
2022-12-14T08:28:04.955Z,30.73
2022-12-14T08:38:07.632Z,34.30
2022-12-14T08:48:10.553Z,27.90
2022-12-14T08:58:16.727Z,30.57
2022-12-14T09:08:19.591Z,28.97
2022-12-14T09:18:22.658Z,32.70
2022-12-14T09:28:25.687Z,27.87
2022-12-14T09:38:28.383Z,26.30
2022-12-14T09:48:31.472Z,26.97
2022-12-14T09:58:35.718Z,22.57
2022-12-14T10:08:56.536Z,23.10
2022-12-14T10:19:03.869Z,25.80
2022-12-14T10:29:15.995Z,27.47
2022-12-14T10:39:33.841Z,23.20
2022-12-14T10:50:02.689Z,26.77
2022-12-14T11:00:22.573Z,23.27
2022-12-14T11:10:33.754Z,23.50
2022-12-14T11:20:36.790Z,22.83
2022-12-14T11:30:40.805Z,23.37
2022-12-14T11:40:44.347Z,25.17
2022-12-14T11:50:49.839Z,25.07
2022-12-14T12:01:06.560Z,22.30
2022-12-14T12:11:25.106Z,24.03
2022-12-14T12:21:35.785Z,23.63
2022-12-14T12:31:49.683Z,19.07
2022-12-14T12:42:46.775Z,23.83
2022-12-14T12:52:57.790Z,26.17
2022-12-14T13:03:48.365Z,23.63
2022-12-14T13:13:59.873Z,22.80
2022-12-14T13:24:07.632Z,23.93
2022-12-14T13:34:57.024Z,20.93
2022-12-14T13:45:25.364Z,19.23
2022-12-14T13:55:47.647Z,22.93
2022-12-14T14:05:58.206Z,21.10
2022-12-14T14:16:28.001Z,20.20
2022-12-14T14:26:35.039Z,17.93
2022-12-14T14:36:37.907Z,19.30
2022-12-14T14:46:45.090Z,18.03
2022-12-14T14:56:51.892Z,18.87
2022-12-14T15:06:59.999Z,16.50
2022-12-14T15:17:18.724Z,20.20
2022-12-14T15:27:37.445Z,19.80
2022-12-14T15:37:59.971Z,18.43
2022-12-14T15:48:22.798Z,11.57
2022-12-14T15:58:34.645Z,8.20
2022-12-14T16:08:41.178Z,9.03
2022-12-14T16:18:50.669Z,6.43
2022-12-14T16:29:19.922Z,7.00
2022-12-14T16:39:23.734Z,6.03
2022-12-14T16:49:41.173Z,4.53
2022-12-14T16:59:46.638Z,7.10
2022-12-14T17:09:49.308Z,8.73
2022-12-14T17:19:52.424Z,9.07
2022-12-14T17:29:57.592Z,28.43
2022-12-14T17:50:02.955Z,24.27
2022-12-14T18:00:24.485Z,20.63
